Search for airport 
image banner adimage banner adimage banner ad
image banner ad

CA80 - San Bernardino County Medical Center Heliport

Located in San Bernardino, United States

ICAO - CA80, IATA -

Data provided by Airmate  

General information

Coordinates: N37°3'52" W120°51'32"
Elevation is 115 feet MSL.
Magnetic variation is 13° East
View others Airports in California

Operational data

Special qualification required
Current time UTC:
Current local time:
Weather at : KMCE - Merced Rgnl/Macready Field ( 39 km )
METAR: KMCE 211253Z AUTO 33007KT 10SM CLR 17/13 A2983 RMK AO2 SLP098 T01720128
TAF: KMCE 211120Z 2112/2212 31007KT P6SM SKC
View NOTAMs / SUP AIP / TFR affecting this airport [VIEW]
Communications frequencies: [VIEW]

Runways:

Airport contact information

Address: San Bernardino United States

Satellite view of CA80